CGBHA CZVL-CYZH
Flight info
| Callsign | CGBHA |
|---|---|
| Flight time | 0h 44m |
| Altitude | 6500 |
| Route | DCT |
| Aircraft | K100/L-V/N |
Departure
| Time | 2026-05-05 22:00 |
|---|---|
| Airport | Edmonton / Villeneuve Airport (CZVL) |
Arrival
| Time | 2026-05-05 22:45 |
|---|---|
| Airport | Slave Lake Airport (CYZH) |
| Time | Latitude | Longitude | Altitude | Speed | Heading |
|---|---|---|---|---|---|
| 2026-05-05 21:44 | 53.67133 | -113.85919 | 2241 ft | 0 kts | 312° |
| 2026-05-05 21:49 | 53.67134 | -113.85919 | 2241 ft | 1 kts | 340° |
| 2026-05-05 21:50 | 53.67142 | -113.85909 | 2241 ft | 3 kts | 34° |
| 2026-05-05 21:50 | 53.67168 | -113.85921 | 2241 ft | 7 kts | 304° |
| 2026-05-05 21:50 | 53.67183 | -113.86026 | 2240 ft | 12 kts | 281° |
| 2026-05-05 21:50 | 53.67201 | -113.86187 | 2240 ft | 13 kts | 273° |
| 2026-05-05 21:51 | 53.67140 | -113.86225 | 2240 ft | 12 kts | 179° |
| 2026-05-05 21:51 | 53.67037 | -113.86225 | 2241 ft | 17 kts | 180° |
| 2026-05-05 21:51 | 53.66905 | -113.86225 | 2242 ft | 20 kts | 180° |
| 2026-05-05 21:51 | 53.66756 | -113.86224 | 2243 ft | 23 kts | 180° |
| 2026-05-05 21:52 | 53.66412 | -113.86223 | 2245 ft | 26 kts | 180° |
| 2026-05-05 21:52 | 53.66282 | -113.86253 | 2246 ft | 13 kts | 226° |
| 2026-05-05 21:52 | 53.66273 | -113.86373 | 2247 ft | 11 kts | 268° |
| 2026-05-05 21:53 | 53.66273 | -113.86412 | 2247 ft | 0 kts | 270° |
| 2026-05-05 21:57 | 53.66275 | -113.86471 | 2246 ft | 9 kts | 278° |
| 2026-05-05 21:57 | 53.66321 | -113.86522 | 2247 ft | 0 kts | 3° |
| 2026-05-05 21:58 | 53.66421 | -113.86520 | 2247 ft | 44 kts | 0° |
| 2026-05-05 21:58 | 53.66871 | -113.86551 | 2296 ft | 76 kts | 355° |
| 2026-05-05 21:58 | 53.67478 | -113.86636 | 2376 ft | 101 kts | 354° |
| 2026-05-05 21:59 | 53.68284 | -113.86704 | 2463 ft | 129 kts | 2° |
| 2026-05-05 21:59 | 53.69255 | -113.86715 | 2508 ft | 146 kts | 359° |
| 2026-05-05 21:59 | 53.70348 | -113.86875 | 2312 ft | 166 kts | 6° |
| 2026-05-05 21:59 | 53.71459 | -113.86495 | 2490 ft | 159 kts | 13° |
| 2026-05-05 22:00 | 53.72511 | -113.86084 | 2725 ft | 152 kts | 4° |
| 2026-05-05 22:00 | 53.73541 | -113.86260 | 3013 ft | 147 kts | 353° |
| 2026-05-05 22:00 | 53.74552 | -113.86485 | 3349 ft | 146 kts | 354° |
| 2026-05-05 22:00 | 53.75570 | -113.86681 | 3474 ft | 151 kts | 354° |
| 2026-05-05 22:01 | 53.76632 | -113.86882 | 3479 ft | 160 kts | 354° |
| 2026-05-05 22:01 | 53.77747 | -113.87096 | 3506 ft | 162 kts | 354° |
| 2026-05-05 22:01 | 53.78825 | -113.87304 | 3796 ft | 151 kts | 354° |
| 2026-05-05 22:01 | 53.79862 | -113.87505 | 4102 ft | 149 kts | 354° |
| 2026-05-05 22:02 | 53.80880 | -113.87727 | 4415 ft | 147 kts | 349° |
| 2026-05-05 22:02 | 53.81717 | -113.88657 | 4730 ft | 147 kts | 313° |
| 2026-05-05 22:02 | 53.82355 | -113.89979 | 5040 ft | 143 kts | 313° |
| 2026-05-05 22:02 | 53.82951 | -113.91207 | 5331 ft | 142 kts | 314° |
| 2026-05-05 22:03 | 53.83574 | -113.92499 | 5647 ft | 141 kts | 313° |
| 2026-05-05 22:03 | 53.84188 | -113.93814 | 5960 ft | 143 kts | 314° |
| 2026-05-05 22:03 | 53.84901 | -113.94925 | 6276 ft | 140 kts | 331° |
| 2026-05-05 22:03 | 53.85796 | -113.95581 | 6507 ft | 145 kts | 342° |
| 2026-05-05 22:04 | 53.86798 | -113.96165 | 6511 ft | 158 kts | 342° |
| 2026-05-05 22:04 | 53.87858 | -113.96761 | 6523 ft | 163 kts | 343° |
| 2026-05-05 22:04 | 53.88941 | -113.97365 | 6521 ft | 165 kts | 342° |
| 2026-05-05 22:04 | 53.90039 | -113.97969 | 6525 ft | 166 kts | 343° |
| 2026-05-05 22:05 | 53.91139 | -113.98583 | 6529 ft | 166 kts | 342° |
| 2026-05-05 22:05 | 53.92238 | -113.99193 | 6533 ft | 166 kts | 342° |
| 2026-05-05 22:05 | 53.93338 | -113.99793 | 6532 ft | 166 kts | 342° |
| 2026-05-05 22:05 | 53.94443 | -114.00411 | 6542 ft | 168 kts | 342° |
| 2026-05-05 22:06 | 53.95557 | -114.01031 | 6541 ft | 169 kts | 342° |
| 2026-05-05 22:06 | 53.96661 | -114.01642 | 6546 ft | 170 kts | 342° |
| 2026-05-05 22:06 | 53.97782 | -114.02270 | 6545 ft | 170 kts | 343° |
| 2026-05-05 22:06 | 53.98903 | -114.02884 | 6551 ft | 169 kts | 342° |
| 2026-05-05 22:07 | 54.00016 | -114.03496 | 6555 ft | 168 kts | 343° |
| 2026-05-05 22:07 | 54.01125 | -114.04115 | 6560 ft | 167 kts | 343° |
| 2026-05-05 22:07 | 54.02232 | -114.04732 | 6557 ft | 167 kts | 342° |
| 2026-05-05 22:07 | 54.03340 | -114.05346 | 6556 ft | 167 kts | 342° |
| 2026-05-05 22:08 | 54.04446 | -114.05963 | 6557 ft | 167 kts | 342° |
| 2026-05-05 22:08 | 54.05555 | -114.06580 | 6556 ft | 168 kts | 342° |
| 2026-05-05 22:08 | 54.06666 | -114.07199 | 6558 ft | 168 kts | 342° |
| 2026-05-05 22:08 | 54.07775 | -114.07817 | 6560 ft | 169 kts | 343° |
| 2026-05-05 22:09 | 54.08889 | -114.08437 | 6556 ft | 168 kts | 342° |
| 2026-05-05 22:09 | 54.10006 | -114.09063 | 6559 ft | 169 kts | 342° |
| 2026-05-05 22:09 | 54.11120 | -114.09698 | 6555 ft | 168 kts | 342° |
| 2026-05-05 22:09 | 54.12218 | -114.10295 | 6552 ft | 167 kts | 343° |
| 2026-05-05 22:10 | 54.13308 | -114.10902 | 6550 ft | 164 kts | 342° |
| 2026-05-05 22:10 | 54.14403 | -114.11517 | 6548 ft | 167 kts | 342° |
| 2026-05-05 22:10 | 54.15538 | -114.12151 | 6553 ft | 175 kts | 342° |
| 2026-05-05 22:10 | 54.16703 | -114.12800 | 6559 ft | 178 kts | 342° |
| 2026-05-05 22:11 | 54.17885 | -114.13466 | 6557 ft | 179 kts | 342° |
| 2026-05-05 22:11 | 54.19075 | -114.14138 | 6554 ft | 181 kts | 342° |
| 2026-05-05 22:11 | 54.20273 | -114.14816 | 6555 ft | 182 kts | 343° |
| 2026-05-05 22:11 | 54.21472 | -114.15475 | 6552 ft | 181 kts | 342° |
| 2026-05-05 22:12 | 54.22654 | -114.16140 | 6557 ft | 182 kts | 342° |
| 2026-05-05 22:12 | 54.23854 | -114.16815 | 6557 ft | 182 kts | 342° |
| 2026-05-05 22:12 | 54.25053 | -114.17493 | 6554 ft | 181 kts | 342° |
| 2026-05-05 22:12 | 54.26250 | -114.18165 | 6554 ft | 182 kts | 342° |
| 2026-05-05 22:13 | 54.27450 | -114.18840 | 6551 ft | 181 kts | 342° |
| 2026-05-05 22:13 | 54.28646 | -114.19509 | 6553 ft | 181 kts | 342° |
| 2026-05-05 22:13 | 54.29849 | -114.20188 | 6550 ft | 182 kts | 342° |
| 2026-05-05 22:13 | 54.31048 | -114.20864 | 6551 ft | 181 kts | 342° |
| 2026-05-05 22:14 | 54.32233 | -114.21532 | 6550 ft | 182 kts | 342° |
| 2026-05-05 22:14 | 54.33437 | -114.22212 | 6548 ft | 182 kts | 342° |
| 2026-05-05 22:14 | 54.34638 | -114.22889 | 6544 ft | 181 kts | 342° |
| 2026-05-05 22:14 | 54.35839 | -114.23581 | 6545 ft | 183 kts | 341° |
| 2026-05-05 22:15 | 54.37043 | -114.24264 | 6548 ft | 182 kts | 343° |
| 2026-05-05 22:15 | 54.38247 | -114.24933 | 6549 ft | 183 kts | 342° |
| 2026-05-05 22:15 | 54.39466 | -114.25626 | 6546 ft | 185 kts | 342° |
| 2026-05-05 22:15 | 54.40685 | -114.26353 | 6535 ft | 185 kts | 340° |
| 2026-05-05 22:16 | 54.41909 | -114.27030 | 6539 ft | 185 kts | 344° |
| 2026-05-05 22:16 | 54.43123 | -114.27675 | 6540 ft | 185 kts | 342° |
| 2026-05-05 22:16 | 54.44341 | -114.28372 | 6541 ft | 183 kts | 342° |
| 2026-05-05 22:16 | 54.45536 | -114.29065 | 6537 ft | 181 kts | 342° |
| 2026-05-05 22:17 | 54.46726 | -114.29740 | 6533 ft | 179 kts | 342° |
| 2026-05-05 22:17 | 54.47907 | -114.30411 | 6529 ft | 179 kts | 342° |
| 2026-05-05 22:17 | 54.48985 | -114.31026 | 6528 ft | 178 kts | 342° |
| 2026-05-05 22:17 | 54.50210 | -114.31708 | 6530 ft | 178 kts | 342° |
| 2026-05-05 22:18 | 54.51381 | -114.32394 | 6530 ft | 178 kts | 342° |
| 2026-05-05 22:18 | 54.52474 | -114.33027 | 6529 ft | 178 kts | 341° |
| 2026-05-05 22:18 | 54.53632 | -114.33690 | 6529 ft | 178 kts | 343° |
| 2026-05-05 22:18 | 54.54805 | -114.34347 | 6528 ft | 177 kts | 342° |
| 2026-05-05 22:19 | 54.55979 | -114.35019 | 6529 ft | 178 kts | 342° |
| 2026-05-05 22:19 | 54.57154 | -114.35691 | 6528 ft | 178 kts | 342° |
| 2026-05-05 22:19 | 54.58331 | -114.36362 | 6523 ft | 178 kts | 342° |
| 2026-05-05 22:19 | 54.59506 | -114.37049 | 6540 ft | 178 kts | 342° |
| 2026-05-05 22:20 | 54.60674 | -114.37710 | 6542 ft | 175 kts | 342° |
| 2026-05-05 22:20 | 54.61829 | -114.38364 | 6543 ft | 174 kts | 342° |
| 2026-05-05 22:20 | 54.62981 | -114.39023 | 6542 ft | 175 kts | 341° |
| 2026-05-05 22:20 | 54.64118 | -114.39678 | 6545 ft | 175 kts | 342° |
| 2026-05-05 22:21 | 54.65272 | -114.40342 | 6543 ft | 175 kts | 342° |
| 2026-05-05 22:21 | 54.66430 | -114.41005 | 6543 ft | 175 kts | 342° |
| 2026-05-05 22:21 | 54.67583 | -114.41667 | 6533 ft | 174 kts | 342° |
| 2026-05-05 22:21 | 54.68735 | -114.42328 | 6526 ft | 175 kts | 342° |
| 2026-05-05 22:22 | 54.69897 | -114.42965 | 6533 ft | 175 kts | 340° |
| 2026-05-05 22:22 | 54.71049 | -114.43651 | 6532 ft | 175 kts | 341° |
| 2026-05-05 22:22 | 54.72203 | -114.44330 | 6535 ft | 176 kts | 341° |
| 2026-05-05 22:22 | 54.73345 | -114.44998 | 6541 ft | 175 kts | 341° |
| 2026-05-05 22:23 | 54.74495 | -114.45680 | 6536 ft | 175 kts | 342° |
| 2026-05-05 22:23 | 54.75653 | -114.46324 | 6535 ft | 175 kts | 342° |
| 2026-05-05 22:23 | 54.76807 | -114.46984 | 6534 ft | 174 kts | 342° |
| 2026-05-05 22:23 | 54.77959 | -114.47633 | 6527 ft | 174 kts | 341° |
| 2026-05-05 22:24 | 54.79103 | -114.48317 | 6531 ft | 175 kts | 341° |
| 2026-05-05 22:24 | 54.80253 | -114.48975 | 6526 ft | 174 kts | 342° |
| 2026-05-05 22:24 | 54.81399 | -114.49644 | 6526 ft | 174 kts | 341° |
| 2026-05-05 22:24 | 54.82547 | -114.50287 | 6539 ft | 172 kts | 343° |
| 2026-05-05 22:25 | 54.83684 | -114.50939 | 6529 ft | 173 kts | 341° |
| 2026-05-05 22:25 | 54.84804 | -114.51622 | 6525 ft | 173 kts | 341° |
| 2026-05-05 22:25 | 54.85948 | -114.52291 | 6524 ft | 174 kts | 342° |
| 2026-05-05 22:25 | 54.87097 | -114.52952 | 6523 ft | 174 kts | 342° |
| 2026-05-05 22:26 | 54.88252 | -114.53615 | 6519 ft | 176 kts | 342° |
| 2026-05-05 22:26 | 54.89422 | -114.54293 | 6516 ft | 177 kts | 342° |
| 2026-05-05 22:26 | 54.90593 | -114.54979 | 6517 ft | 178 kts | 342° |
| 2026-05-05 22:26 | 54.91763 | -114.55659 | 6521 ft | 178 kts | 341° |
| 2026-05-05 22:27 | 54.92948 | -114.56344 | 6516 ft | 179 kts | 342° |
| 2026-05-05 22:27 | 54.94127 | -114.57036 | 6516 ft | 178 kts | 342° |
| 2026-05-05 22:27 | 54.95303 | -114.57721 | 6516 ft | 178 kts | 342° |
| 2026-05-05 22:27 | 54.96462 | -114.58396 | 6513 ft | 178 kts | 342° |
| 2026-05-05 22:28 | 54.97634 | -114.59080 | 6507 ft | 178 kts | 342° |
| 2026-05-05 22:28 | 54.98810 | -114.59766 | 6503 ft | 178 kts | 342° |
| 2026-05-05 22:28 | 54.99982 | -114.60451 | 6497 ft | 174 kts | 342° |
| 2026-05-05 22:28 | 55.01065 | -114.61080 | 6491 ft | 156 kts | 341° |
| 2026-05-05 22:29 | 55.02070 | -114.61672 | 6411 ft | 152 kts | 342° |
| 2026-05-05 22:29 | 55.03083 | -114.62262 | 6143 ft | 158 kts | 342° |
| 2026-05-05 22:29 | 55.04159 | -114.62891 | 5884 ft | 170 kts | 342° |
| 2026-05-05 22:29 | 55.05328 | -114.63551 | 5639 ft | 183 kts | 341° |
| 2026-05-05 22:30 | 55.06549 | -114.64302 | 5391 ft | 189 kts | 341° |
| 2026-05-05 22:30 | 55.07802 | -114.65047 | 5138 ft | 188 kts | 342° |
| 2026-05-05 22:30 | 55.08984 | -114.65730 | 4868 ft | 172 kts | 342° |
| 2026-05-05 22:30 | 55.10109 | -114.66209 | 4611 ft | 164 kts | 2° |
| 2026-05-05 22:31 | 55.11106 | -114.65407 | 4347 ft | 162 kts | 48° |
| 2026-05-05 22:31 | 55.11452 | -114.63590 | 4093 ft | 162 kts | 94° |
| 2026-05-05 22:31 | 55.11067 | -114.61741 | 3850 ft | 163 kts | 114° |
| 2026-05-05 22:31 | 55.10567 | -114.59967 | 3601 ft | 163 kts | 115° |
| 2026-05-05 22:32 | 55.10070 | -114.58193 | 3354 ft | 162 kts | 114° |
| 2026-05-05 22:32 | 55.09574 | -114.56426 | 3066 ft | 162 kts | 115° |
| 2026-05-05 22:32 | 55.09096 | -114.54700 | 2994 ft | 154 kts | 114° |
| 2026-05-05 22:32 | 55.08639 | -114.53018 | 3001 ft | 153 kts | 114° |
| 2026-05-05 22:33 | 55.08176 | -114.51352 | 3003 ft | 152 kts | 114° |
| 2026-05-05 22:33 | 55.07799 | -114.49644 | 2999 ft | 151 kts | 93° |
| 2026-05-05 22:33 | 55.08152 | -114.47997 | 3003 ft | 149 kts | 42° |
| 2026-05-05 22:33 | 55.09051 | -114.47130 | 3007 ft | 148 kts | 24° |
| 2026-05-05 22:34 | 55.09996 | -114.46391 | 3004 ft | 150 kts | 25° |
| 2026-05-05 22:34 | 55.10916 | -114.45663 | 2995 ft | 144 kts | 24° |
| 2026-05-05 22:34 | 55.11803 | -114.44961 | 2987 ft | 137 kts | 24° |
| 2026-05-05 22:34 | 55.12662 | -114.44284 | 2981 ft | 134 kts | 24° |
| 2026-05-05 22:35 | 55.13503 | -114.43620 | 2983 ft | 131 kts | 24° |
| 2026-05-05 22:35 | 55.14327 | -114.42970 | 2981 ft | 129 kts | 25° |
| 2026-05-05 22:35 | 55.15141 | -114.42333 | 2981 ft | 128 kts | 24° |
| 2026-05-05 22:35 | 55.15952 | -114.41699 | 2978 ft | 128 kts | 24° |
| 2026-05-05 22:36 | 55.16759 | -114.41065 | 2982 ft | 127 kts | 24° |
| 2026-05-05 22:36 | 55.17564 | -114.40432 | 2981 ft | 127 kts | 24° |
| 2026-05-05 22:36 | 55.18366 | -114.39804 | 3002 ft | 126 kts | 24° |
| 2026-05-05 22:36 | 55.19172 | -114.39177 | 3005 ft | 127 kts | 24° |
| 2026-05-05 22:37 | 55.20020 | -114.38798 | 2991 ft | 129 kts | 350° |
| 2026-05-05 22:37 | 55.20682 | -114.39730 | 2992 ft | 129 kts | 296° |
| 2026-05-05 22:37 | 55.21035 | -114.41172 | 3000 ft | 129 kts | 295° |
| 2026-05-05 22:37 | 55.21390 | -114.42618 | 2995 ft | 130 kts | 294° |
| 2026-05-05 22:38 | 55.21742 | -114.44076 | 2996 ft | 130 kts | 294° |
| 2026-05-05 22:38 | 55.22096 | -114.45531 | 2996 ft | 130 kts | 294° |
| 2026-05-05 22:38 | 55.22449 | -114.46984 | 2992 ft | 130 kts | 294° |
| 2026-05-05 22:38 | 55.22804 | -114.48436 | 2990 ft | 130 kts | 294° |
| 2026-05-05 22:39 | 55.23160 | -114.49887 | 2987 ft | 130 kts | 294° |
| 2026-05-05 22:39 | 55.23514 | -114.51335 | 2984 ft | 129 kts | 294° |
| 2026-05-05 22:39 | 55.23872 | -114.52781 | 2983 ft | 129 kts | 294° |
| 2026-05-05 22:39 | 55.24228 | -114.54227 | 2980 ft | 129 kts | 295° |
| 2026-05-05 22:40 | 55.24584 | -114.55673 | 2977 ft | 129 kts | 294° |
| 2026-05-05 22:40 | 55.24940 | -114.57117 | 2974 ft | 129 kts | 295° |
| 2026-05-05 22:40 | 55.25288 | -114.58547 | 2971 ft | 129 kts | 294° |
| 2026-05-05 22:40 | 55.25638 | -114.59991 | 2969 ft | 129 kts | 294° |
| 2026-05-05 22:41 | 55.25991 | -114.61433 | 2966 ft | 129 kts | 294° |
| 2026-05-05 22:41 | 55.26324 | -114.62889 | 2963 ft | 129 kts | 291° |
| 2026-05-05 22:41 | 55.26607 | -114.64381 | 2962 ft | 129 kts | 289° |
| 2026-05-05 22:41 | 55.26888 | -114.65871 | 2967 ft | 128 kts | 290° |
| 2026-05-05 22:42 | 55.27142 | -114.67346 | 2857 ft | 127 kts | 282° |
| 2026-05-05 22:42 | 55.27280 | -114.68866 | 2714 ft | 123 kts | 280° |
| 2026-05-05 22:42 | 55.27391 | -114.70297 | 2480 ft | 114 kts | 280° |
| 2026-05-05 22:42 | 55.27556 | -114.71564 | 2291 ft | 98 kts | 288° |
| 2026-05-05 22:43 | 55.27748 | -114.72541 | 2147 ft | 75 kts | 296° |
| 2026-05-05 22:43 | 55.27983 | -114.73355 | 2136 ft | 76 kts | 293° |
| 2026-05-05 22:43 | 55.28169 | -114.74288 | 2214 ft | 91 kts | 294° |
| 2026-05-05 22:43 | 55.28500 | -114.75330 | 2165 ft | 99 kts | 302° |
| 2026-05-05 22:44 | 55.28825 | -114.76255 | 2010 ft | 81 kts | 304° |
| 2026-05-05 22:44 | 55.29081 | -114.76995 | 1911 ft | 63 kts | 296° |
| 2026-05-05 22:44 | 55.29266 | -114.77626 | 1918 ft | 53 kts | 295° |
| 2026-05-05 22:44 | 55.29425 | -114.78193 | 1902 ft | 50 kts | 296° |
| 2026-05-05 22:45 | 55.29490 | -114.78373 | 1902 ft | 4 kts | 12° |
| 2026-05-05 22:45 | 55.29540 | -114.78318 | 1909 ft | 5 kts | 72° |
| 2026-05-05 22:45 | 55.29504 | -114.78180 | 1910 ft | 24 kts | 121° |
| 2026-05-05 22:45 | 55.29391 | -114.77831 | 1910 ft | 30 kts | 118° |
| 2026-05-05 22:46 | 55.29410 | -114.77681 | 1910 ft | 0 kts | 27° |